マヘ島 の空港の天気 - METARとTAF

セーシェル国際空港 ( FSIA / SEZ ) - セーシェル マヘ島
飛行場実況気象(Metar)
観測時間04/26 15:00 SCT (04/26 11:00 UTC)
風向・風速北 4m/s
視程10km以上
天気現象
少しの雲 雲底高度 460m
全天の4割程度の雲 雲底高度 880m
気温30℃
湿度70%
気圧1007hPa
METARFSIA 261100Z VRB07KT 9999 R13///// FEW015CB SCT029 30/24 Q1007 NOSIG
過去の天気等 Google飛行場航空写真 Wunderground天気予報

過去48時間のMETAR

飛行場予報(TAF)
発表時間: 4/26 09:05 SCT (4/26 05:05 UTC)
予報対象時間: 26日10時 SCT ~ 27日10時 SCT
風向・風速南 3m/s
視程10km以上
少しの積乱雲 雲底高度 460m
全天の4割程度の雲 雲底高度 670m
26日10時 SCT ~ 26日16時 SCT に一時的に
天気現象弱いしゅう雨
少しの積乱雲 雲底高度 400m
全天の8割程度の雲 雲底高度 610m
26日22時 SCT ~ 27日4時 SCT に一時的に
天気現象弱いしゅう雨
全天の8割程度の雲 雲底高度 550m
TAF FSIA 260505Z 2606/2706 17005KT 9999 FEW015CB SCT022
TEMPO 2606/2612 -SHRA FEW013CB BKN020
TEMPO 2618/2624 -SHRA BKN018